Time;durP1;ratioP1;P1;durP2;ratioP2;P2;SDS_P1;SDS_P2;PMS_P1;PMS_P2;Temp;Humidity;BMP_temperature;BMP_pressure;BME280_temperature;BME280_humidity;BME280_pressure;Samples;Min_cycle;Max_cycle;Signal;HPM_P1;HPM_P2
2023/12/15 00:00:33;;;;;;;4.13;3.23;;;;;;;;;;5037251;28;20208;-62
2023/12/15 00:03:02;;;;;;;4.07;3.03;;;;;;;;;;5037152;28;20242;-62
2023/12/15 00:05:31;;;;;;;6.40;3.23;;;;;;;;;;5036318;28;21769;-62
2023/12/15 00:07:59;;;;;;;5.20;3.03;;;;;;;;;;5036897;28;20690;-62
2023/12/15 00:10:27;;;;;;;3.40;3.10;;;;;;;;;;5037153;28;20195;-62
2023/12/15 00:12:55;;;;;;;3.87;2.70;;;;;;;;;;5036570;28;20654;-62
2023/12/15 00:15:23;;;;;;;3.73;2.67;;;;;;;;;;5036758;28;20199;-62
2023/12/15 00:17:51;;;;;;;3.70;2.90;;;;;;;;;;5036893;28;20204;-62
2023/12/15 00:20:21;;;;;;;5.33;3.07;;;;;;;;;;5036796;28;20310;-62
2023/12/15 00:22:50;;;;;;;4.17;2.70;;;;;;;;;;5036632;28;20212;-62
2023/12/15 00:25:18;;;;;;;4.87;3.00;;;;;;;;;;5036955;28;20203;-62
2023/12/15 00:27:48;;;;;;;4.70;2.57;;;;;;;;;;5036878;28;20207;-62
2023/12/15 00:30:16;;;;;;;4.90;3.30;;;;;;;;;;5028392;28;20221;-62
2023/12/15 00:32:45;;;;;;;3.80;2.73;;;;;;;;;;5036604;28;20290;-62
2023/12/15 00:35:13;;;;;;;5.03;2.90;;;;;;;;;;5036448;28;20742;-62
2023/12/15 00:37:43;;;;;;;2.73;2.47;;;;;;;;;;5037092;28;20207;-62
2023/12/15 00:43:32;;;;;;;4.10;2.53;;;;;;;;;;5033904;28;20752;-62
2023/12/15 00:46:01;;;;;;;3.97;2.87;;;;;;;;;;5040128;28;20200;-62
2023/12/15 00:48:29;;;;;;;4.83;3.03;;;;;;;;;;5040648;28;20238;-62
2023/12/15 00:50:57;;;;;;;3.00;2.73;;;;;;;;;;5039977;28;20203;-62
2023/12/15 00:53:32;;;;;;;3.73;2.60;;;;;;;;;;5039831;28;20219;-62
2023/12/15 00:56:00;;;;;;;3.30;2.67;;;;;;;;;;5040150;28;20203;-63
2023/12/15 00:58:29;;;;;;;7.23;3.17;;;;;;;;;;5038417;28;20199;-62
2023/12/15 01:00:57;;;;;;;3.70;2.97;;;;;;;;;;5039882;28;20651;-62
2023/12/15 01:03:25;;;;;;;4.17;3.67;;;;;;;;;;5038208;28;20239;-63
2023/12/15 01:05:54;;;;;;;7.70;4.80;;;;;;;;;;5039289;28;20297;-62
2023/12/15 01:08:23;;;;;;;15.10;7.23;;;;;;;;;;5040108;28;20220;-63
2023/12/15 01:10:52;;;;;;;11.30;5.57;;;;;;;;;;5039822;28;20666;-62
2023/12/15 01:13:20;;;;;;;3.87;2.87;;;;;;;;;;5039639;28;20223;-62
2023/12/15 01:15:49;;;;;;;4.00;2.60;;;;;;;;;;5039563;28;20681;-62
2023/12/15 01:18:18;;;;;;;4.23;2.97;;;;;;;;;;5039775;28;20199;-62
2023/12/15 01:20:47;;;;;;;2.40;2.20;;;;;;;;;;5040078;28;20216;-62
2023/12/15 01:23:15;;;;;;;4.27;2.80;;;;;;;;;;5037245;28;20225;-62
2023/12/15 01:25:44;;;;;;;3.73;3.13;;;;;;;;;;5037151;28;20196;-62
2023/12/15 01:28:13;;;;;;;3.00;2.70;;;;;;;;;;5033964;28;20208;-63
2023/12/15 01:30:41;;;;;;;7.43;3.00;;;;;;;;;;5039886;28;20265;-62
2023/12/15 01:33:09;;;;;;;3.80;2.90;;;;;;;;;;5039959;28;20258;-62
2023/12/15 01:35:38;;;;;;;4.73;3.17;;;;;;;;;;5036482;28;20199;-62
2023/12/15 01:38:06;;;;;;;4.33;2.70;;;;;;;;;;5039356;28;20200;-62
2023/12/15 01:40:34;;;;;;;5.60;3.00;;;;;;;;;;5039506;28;20267;-63
2023/12/15 01:43:02;;;;;;;5.97;3.10;;;;;;;;;;5039325;28;20242;-62
2023/12/15 01:45:31;;;;;;;5.83;3.50;;;;;;;;;;5039081;28;20203;-62
2023/12/15 01:47:59;;;;;;;3.93;2.63;;;;;;;;;;5033289;28;20616;-62
2023/12/15 01:50:28;;;;;;;3.13;2.60;;;;;;;;;;5038874;28;20252;-62
2023/12/15 01:52:56;;;;;;;3.33;2.77;;;;;;;;;;5039529;28;20207;-63
2023/12/15 01:55:24;;;;;;;4.23;3.00;;;;;;;;;;5038995;28;20214;-62
2023/12/15 01:57:53;;;;;;;5.77;2.40;;;;;;;;;;5038909;28;20654;-63
2023/12/15 02:00:21;;;;;;;5.70;3.07;;;;;;;;;;5039078;28;20630;-62
2023/12/15 02:02:50;;;;;;;5.90;2.73;;;;;;;;;;5036614;28;20686;-62
2023/12/15 02:05:18;;;;;;;3.93;2.63;;;;;;;;;;5038533;28;20242;-63
2023/12/15 02:07:47;;;;;;;4.03;2.50;;;;;;;;;;5039031;28;20212;-62
2023/12/15 02:10:15;;;;;;;8.50;3.60;;;;;;;;;;5039040;28;20636;-63
2023/12/15 02:12:43;;;;;;;3.20;2.77;;;;;;;;;;5038692;28;20208;-63
2023/12/15 02:15:11;;;;;;;8.07;2.90;;;;;;;;;;5038254;28;20793;-62
2023/12/15 02:17:39;;;;;;;5.97;2.97;;;;;;;;;;5038996;28;20214;-62
2023/12/15 02:20:10;;;;;;;5.60;2.80;;;;;;;;;;5038644;28;20211;-63
2023/12/15 02:22:43;;;;;;;3.60;2.53;;;;;;;;;;5038501;28;20646;-63
2023/12/15 02:25:11;;;;;;;6.30;2.87;;;;;;;;;;5036103;28;20200;-62
2023/12/15 02:27:40;;;;;;;4.20;2.90;;;;;;;;;;5035847;28;20647;-62
2023/12/15 02:30:09;;;;;;;3.27;2.80;;;;;;;;;;5038435;28;20694;-62
2023/12/15 02:32:37;;;;;;;2.63;2.43;;;;;;;;;;5038340;28;20235;-62
2023/12/15 02:35:06;;;;;;;4.03;2.53;;;;;;;;;;5037787;28;20204;-62
2023/12/15 02:37:34;;;;;;;4.13;2.73;;;;;;;;;;5038151;28;20545;-62
2023/12/15 02:40:04;;;;;;;3.47;2.90;;;;;;;;;;5038494;28;20673;-62
2023/12/15 02:42:33;;;;;;;3.87;2.80;;;;;;;;;;5038417;28;20234;-62
2023/12/15 02:45:02;;;;;;;3.07;2.67;;;;;;;;;;5038490;28;20228;-62
2023/12/15 02:47:30;;;;;;;4.47;2.70;;;;;;;;;;5037926;28;20234;-62
2023/12/15 02:49:59;;;;;;;3.00;2.70;;;;;;;;;;5037725;28;20593;-62
2023/12/15 02:52:29;;;;;;;5.43;2.50;;;;;;;;;;5029362;28;20231;-62
2023/12/15 02:55:00;;;;;;;5.23;2.57;;;;;;;;;;5037103;28;20223;-62
2023/12/15 03:00:59;;;;;;;3.30;2.30;;;;;;;;;;5037460;28;20221;-62
2023/12/15 03:03:27;;;;;;;4.30;2.40;;;;;;;;;;5037954;28;20238;-62
2023/12/15 03:05:58;;;;;;;2.77;2.57;;;;;;;;;;5034237;28;20671;-62
2023/12/15 03:08:27;;;;;;;4.17;2.50;;;;;;;;;;5037716;28;20250;-63
2023/12/15 03:10:57;;;;;;;6.67;2.50;;;;;;;;;;5037631;28;20219;-62
2023/12/15 03:13:26;;;;;;;5.77;2.70;;;;;;;;;;5037549;28;20273;-63
2023/12/15 03:15:55;;;;;;;3.33;2.40;;;;;;;;;;5037241;28;20211;-62
2023/12/15 03:18:24;;;;;;;4.33;2.80;;;;;;;;;;5037624;28;20682;-62
2023/12/15 03:20:53;;;;;;;5.00;2.60;;;;;;;;;;5037014;28;20199;-62
2023/12/15 03:23:21;;;;;;;4.57;2.63;;;;;;;;;;5037845;28;20253;-62
2023/12/15 03:25:49;;;;;;;3.93;2.60;;;;;;;;;;5036997;28;20257;-62
2023/12/15 03:28:18;;;;;;;3.17;2.40;;;;;;;;;;5037366;28;20666;-62
2023/12/15 03:30:46;;;;;;;4.57;2.47;;;;;;;;;;5037128;28;20314;-62
2023/12/15 03:33:14;;;;;;;2.90;2.60;;;;;;;;;;5037582;28;20259;-62
2023/12/15 03:35:44;;;;;;;2.80;2.43;;;;;;;;;;5036847;28;20196;-62
2023/12/15 03:38:13;;;;;;;3.97;2.80;;;;;;;;;;5037357;28;20203;-62
2023/12/15 03:40:43;;;;;;;5.53;2.70;;;;;;;;;;5037742;28;20294;-62
2023/12/15 03:43:14;;;;;;;3.17;2.40;;;;;;;;;;5037094;28;20223;-62
2023/12/15 03:45:42;;;;;;;4.40;2.30;;;;;;;;;;5036812;28;20200;-63
2023/12/15 03:48:10;;;;;;;2.63;2.17;;;;;;;;;;5037301;28;20210;-62
2023/12/15 03:50:39;;;;;;;3.07;2.20;;;;;;;;;;5036628;28;20266;-62
2023/12/15 03:53:09;;;;;;;3.43;2.77;;;;;;;;;;5037177;28;20228;-62
2023/12/15 03:55:38;;;;;;;4.03;2.43;;;;;;;;;;5036564;28;20678;-63
2023/12/15 03:58:06;;;;;;;2.40;2.20;;;;;;;;;;5037354;28;20210;-63
2023/12/15 04:00:38;;;;;;;4.63;2.40;;;;;;;;;;5034282;28;20674;-62
2023/12/15 04:03:07;;;;;;;2.60;2.40;;;;;;;;;;5037276;28;20238;-62
2023/12/15 04:05:35;;;;;;;4.23;2.30;;;;;;;;;;5036257;28;20649;-62
2023/12/15 04:08:03;;;;;;;3.43;2.50;;;;;;;;;;5036922;28;20685;-62
2023/12/15 04:10:32;;;;;;;4.57;2.90;;;;;;;;;;5037172;28;20222;-62
2023/12/15 04:13:00;;;;;;;6.00;2.83;;;;;;;;;;5037019;28;20220;-62
2023/12/15 04:15:28;;;;;;;4.47;2.87;;;;;;;;;;5036734;28;20604;-62
2023/12/15 04:17:56;;;;;;;3.03;2.30;;;;;;;;;;5040993;28;20206;-62
2023/12/15 04:20:25;;;;;;;2.80;2.60;;;;;;;;;;5040588;28;20196;-62
2023/12/15 04:22:53;;;;;;;3.27;2.87;;;;;;;;;;5040712;28;20733;-62
2023/12/15 04:25:21;;;;;;;4.73;2.40;;;;;;;;;;5040698;28;20210;-62
2023/12/15 04:27:50;;;;;;;2.50;2.30;;;;;;;;;;5040754;28;20215;-62
2023/12/15 04:30:18;;;;;;;3.03;2.60;;;;;;;;;;5040710;28;20223;-62
2023/12/15 04:32:46;;;;;;;2.80;2.47;;;;;;;;;;5040641;28;20204;-62
2023/12/15 04:35:14;;;;;;;5.93;4.70;;;;;;;;;;5040330;28;20200;-62
2023/12/15 04:37:43;;;;;;;6.20;3.23;;;;;;;;;;5040631;28;20211;-62
2023/12/15 04:40:13;;;;;;;8.17;3.63;;;;;;;;;;5040355;28;20673;-62
2023/12/15 04:42:41;;;;;;;6.50;3.47;;;;;;;;;;5040299;28;20207;-63
2023/12/15 04:45:10;;;;;;;5.53;4.77;;;;;;;;;;5033806;28;20204;-62
2023/12/15 04:47:39;;;;;;;7.57;3.27;;;;;;;;;;5040542;28;20206;-62
2023/12/15 04:50:08;;;;;;;3.23;2.77;;;;;;;;;;5040324;28;20294;-62
2023/12/15 04:52:36;;;;;;;4.43;2.47;;;;;;;;;;5036030;28;20729;-63
2023/12/15 04:55:05;;;;;;;3.17;2.57;;;;;;;;;;5040386;28;20713;-62
2023/12/15 04:57:33;;;;;;;5.70;2.60;;;;;;;;;;5040402;28;20215;-62
2023/12/15 05:00:02;;;;;;;4.90;2.63;;;;;;;;;;5040615;28;20210;-62
2023/12/15 05:02:32;;;;;;;3.60;2.90;;;;;;;;;;5039609;28;20203;-62
2023/12/15 05:05:00;;;;;;;3.53;2.70;;;;;;;;;;5039676;28;20247;-62
2023/12/15 05:07:28;;;;;;;3.97;3.03;;;;;;;;;;5039528;28;20203;-62
2023/12/15 05:09:56;;;;;;;5.13;2.67;;;;;;;;;;5040130;28;20669;-62
2023/12/15 05:12:24;;;;;;;5.43;3.23;;;;;;;;;;5040054;28;20253;-62
2023/12/15 05:14:52;;;;;;;4.63;2.93;;;;;;;;;;5039965;28;20227;-62
2023/12/15 05:17:22;;;;;;;4.00;2.97;;;;;;;;;;5039933;28;20667;-62
2023/12/15 05:19:55;;;;;;;4.27;2.77;;;;;;;;;;5039651;28;20204;-62
2023/12/15 05:22:23;;;;;;;7.57;5.67;;;;;;;;;;5040075;28;20235;-63
2023/12/15 05:24:51;;;;;;;5.23;2.60;;;;;;;;;;5039942;28;20224;-62
2023/12/15 05:27:19;;;;;;;4.80;2.57;;;;;;;;;;5039217;28;20254;-63
2023/12/15 05:29:47;;;;;;;3.10;2.80;;;;;;;;;;5039797;28;20227;-62
2023/12/15 05:32:15;;;;;;;3.17;2.43;;;;;;;;;;5039917;28;20219;-62
2023/12/15 05:34:43;;;;;;;5.23;2.53;;;;;;;;;;5039267;28;20254;-63
2023/12/15 05:37:13;;;;;;;2.83;2.50;;;;;;;;;;5037813;28;20662;-62
2023/12/15 05:39:45;;;;;;;5.67;4.10;;;;;;;;;;5042970;28;20252;-62
2023/12/15 05:42:13;;;;;;;6.20;3.43;;;;;;;;;;5038533;28;20204;-63
2023/12/15 05:44:42;;;;;;;6.17;2.53;;;;;;;;;;5039496;28;20223;-63
2023/12/15 05:47:10;;;;;;;5.23;2.40;;;;;;;;;;5039495;28;20211;-62
2023/12/15 05:49:39;;;;;;;3.27;2.60;;;;;;;;;;5038391;28;20215;-62
2023/12/15 05:52:08;;;;;;;4.17;2.80;;;;;;;;;;5039399;28;20219;-62
2023/12/15 05:54:38;;;;;;;3.27;2.70;;;;;;;;;;5039449;28;20824;-63
2023/12/15 05:57:06;;;;;;;3.20;2.50;;;;;;;;;;5039138;28;20613;-62
2023/12/15 05:59:35;;;;;;;4.60;2.53;;;;;;;;;;5039327;28;20204;-63
2023/12/15 06:02:04;;;;;;;8.23;2.80;;;;;;;;;;5039490;28;20203;-62
2023/12/15 06:04:32;;;;;;;3.77;2.70;;;;;;;;;;5038649;28;20306;-63
2023/12/15 06:07:00;;;;;;;4.60;2.67;;;;;;;;;;5038606;28;20207;-62
2023/12/15 06:09:28;;;;;;;3.30;2.83;;;;;;;;;;5039247;28;20214;-63
2023/12/15 06:11:58;;;;;;;4.83;2.57;;;;;;;;;;5038629;28;20775;-63
2023/12/15 06:17:47;;;;;;;2.33;2.13;;;;;;;;;;5037411;28;20190;-62
2023/12/15 06:20:16;;;;;;;3.17;2.37;;;;;;;;;;5038560;28;20204;-63
2023/12/15 06:22:44;;;;;;;4.70;2.70;;;;;;;;;;5038854;28;20200;-63
2023/12/15 06:25:46;;;;;;;4.70;2.70;;;;;;;;;;5038738;28;20204;-62
2023/12/15 06:28:15;;;;;;;7.20;2.77;;;;;;;;;;5034934;28;20195;-63
2023/12/15 06:30:43;;;;;;;3.17;2.30;;;;;;;;;;5038548;28;20199;-63
2023/12/15 06:33:11;;;;;;;4.57;2.37;;;;;;;;;;5038176;28;20227;-63
2023/12/15 06:35:39;;;;;;;3.93;2.63;;;;;;;;;;5038311;28;20204;-62
2023/12/15 06:38:07;;;;;;;5.47;2.93;;;;;;;;;;5038346;28;20203;-62
2023/12/15 06:40:35;;;;;;;5.17;2.70;;;;;;;;;;5037251;28;20242;-62
2023/12/15 06:43:04;;;;;;;4.07;2.70;;;;;;;;;;5038093;28;20215;-62
2023/12/15 06:45:36;;;;;;;5.37;2.70;;;;;;;;;;5038082;28;20275;-63
2023/12/15 06:51:03;;;;;;;3.90;2.70;;;;;;;;;;5000996;28;20248;-63
2023/12/15 06:53:31;;;;;;;4.83;3.33;;;;;;;;;;5036814;28;20226;-62
2023/12/15 06:56:00;;;;;;;6.37;2.57;;;;;;;;;;5038197;28;20203;-63
2023/12/15 06:58:28;;;;;;;3.53;2.80;;;;;;;;;;5038885;28;20599;-61
2023/12/15 07:00:58;;;;;;;4.30;2.77;;;;;;;;;;5037571;28;20728;-62
2023/12/15 07:03:26;;;;;;;3.47;2.57;;;;;;;;;;5037708;28;20226;-62
2023/12/15 07:05:54;;;;;;;6.97;3.20;;;;;;;;;;5037665;28;20242;-62
2023/12/15 07:08:22;;;;;;;7.53;2.77;;;;;;;;;;5037589;28;20203;-62
2023/12/15 07:10:50;;;;;;;4.03;2.50;;;;;;;;;;5035201;28;20223;-62
2023/12/15 07:13:19;;;;;;;5.33;2.80;;;;;;;;;;5037317;28;20224;-62
2023/12/15 07:15:47;;;;;;;5.13;2.30;;;;;;;;;;5037326;28;20251;-62
2023/12/15 07:18:16;;;;;;;3.30;2.30;;;;;;;;;;5037724;28;20204;-62
2023/12/15 07:20:44;;;;;;;5.80;2.50;;;;;;;;;;5035286;28;20207;-62
2023/12/15 07:23:12;;;;;;;3.43;2.97;;;;;;;;;;5037557;28;20222;-62
2023/12/15 07:25:41;;;;;;;3.50;2.20;;;;;;;;;;5030097;28;20291;-62
2023/12/15 07:28:09;;;;;;;3.13;2.50;;;;;;;;;;5036207;28;20254;-62
2023/12/15 07:30:40;;;;;;;4.13;2.20;;;;;;;;;;5037276;28;20195;-62
2023/12/15 07:33:08;;;;;;;2.77;2.40;;;;;;;;;;5037135;28;20285;-62
2023/12/15 07:35:38;;;;;;;5.00;2.80;;;;;;;;;;5037077;28;20203;-62
2023/12/15 07:38:07;;;;;;;6.83;2.87;;;;;;;;;;5036909;28;20212;-62
2023/12/15 07:40:41;;;;;;;3.13;2.50;;;;;;;;;;5033940;28;20286;-62
2023/12/15 07:43:09;;;;;;;10.03;3.57;;;;;;;;;;5034703;28;20222;-62
2023/12/15 07:45:37;;;;;;;7.40;3.17;;;;;;;;;;5037165;28;20203;-62
2023/12/15 07:48:05;;;;;;;4.70;3.17;;;;;;;;;;5036772;28;20202;-62
2023/12/15 07:50:33;;;;;;;8.73;2.70;;;;;;;;;;5036401;28;20718;-62
2023/12/15 07:53:03;;;;;;;5.80;2.80;;;;;;;;;;5036789;28;20227;-62
2023/12/15 07:55:31;;;;;;;4.47;2.80;;;;;;;;;;5037590;28;20222;-62
2023/12/15 07:57:59;;;;;;;9.73;3.20;;;;;;;;;;5036698;28;20227;-62
2023/12/15 08:00:27;;;;;;;4.47;2.67;;;;;;;;;;5037148;28;20204;-62
2023/12/15 08:02:55;;;;;;;7.40;2.90;;;;;;;;;;5036988;28;20230;-62
2023/12/15 08:05:23;;;;;;;4.53;2.50;;;;;;;;;;5035937;28;20258;-63
2023/12/15 08:07:51;;;;;;;3.83;3.03;;;;;;;;;;5036841;28;20211;-63
2023/12/15 08:10:25;;;;;;;8.27;3.13;;;;;;;;;;5037419;28;20214;-62
2023/12/15 08:12:53;;;;;;;4.30;2.87;;;;;;;;;;5033176;28;20219;-63
2023/12/15 08:15:21;;;;;;;10.27;2.97;;;;;;;;;;5036735;28;20254;-63
2023/12/15 08:21:13;;;;;;;7.00;2.43;;;;;;;;;;5036459;28;20195;-63
2023/12/15 08:23:57;;;;;;;6.87;3.40;;;;;;;;;;5036551;28;20250;-63
2023/12/15 08:26:33;;;;;;;9.10;4.17;;;;;;;;;;5035482;28;20291;-64
2023/12/15 08:29:03;;;;;;;9.37;3.40;;;;;;;;;;5031697;28;20199;-63
2023/12/15 08:31:32;;;;;;;5.97;3.47;;;;;;;;;;5036758;28;20670;-64
2023/12/15 08:34:00;;;;;;;8.20;3.43;;;;;;;;;;5036239;28;20250;-63
2023/12/15 08:36:29;;;;;;;5.43;2.53;;;;;;;;;;5036461;28;20210;-63
2023/12/15 08:38:57;;;;;;;4.53;2.80;;;;;;;;;;5036525;28;20212;-63
2023/12/15 08:41:25;;;;;;;4.47;3.00;;;;;;;;;;5036590;28;20226;-63
2023/12/15 08:43:56;;;;;;;5.13;2.70;;;;;;;;;;5037090;28;20223;-63
2023/12/15 08:46:25;;;;;;;5.13;2.43;;;;;;;;;;5036561;28;20554;-63
2023/12/15 08:48:53;;;;;;;3.57;3.03;;;;;;;;;;5034878;28;20247;-63
2023/12/15 08:51:23;;;;;;;6.30;3.20;;;;;;;;;;5037586;28;20210;-62
2023/12/15 08:53:54;;;;;;;3.80;2.70;;;;;;;;;;5039076;28;20254;-62
2023/12/15 08:56:23;;;;;;;4.53;3.17;;;;;;;;;;5036797;28;20203;-63
2023/12/15 08:58:51;;;;;;;4.70;2.87;;;;;;;;;;5036255;28;20204;-62
2023/12/15 09:01:21;;;;;;;6.03;3.03;;;;;;;;;;5028804;28;20254;-62
2023/12/15 09:03:49;;;;;;;4.67;2.63;;;;;;;;;;5038584;28;20227;-62
2023/12/15 09:06:23;;;;;;;5.00;2.60;;;;;;;;;;5039003;28;20246;-64
2023/12/15 09:09:00;;;;;;;2.80;2.60;;;;;;;;;;5040009;28;20195;-64
2023/12/15 09:11:28;;;;;;;3.60;2.63;;;;;;;;;;5040446;28;20203;-63
2023/12/15 09:13:56;;;;;;;3.70;2.80;;;;;;;;;;5039695;28;20684;-63
2023/12/15 09:16:27;;;;;;;5.80;2.70;;;;;;;;;;5037941;28;20421;-62
2023/12/15 09:18:56;;;;;;;2.80;2.33;;;;;;;;;;5039495;28;20211;-63
2023/12/15 09:21:25;;;;;;;3.07;2.77;;;;;;;;;;5037695;28;20195;-62
2023/12/15 09:23:56;;;;;;;6.50;2.53;;;;;;;;;;5039876;28;20226;-63
2023/12/15 09:26:25;;;;;;;3.70;2.80;;;;;;;;;;5035382;28;20231;-63
2023/12/15 09:28:54;;;;;;;2.80;2.30;;;;;;;;;;5038633;28;20674;-62
2023/12/15 09:31:29;;;;;;;6.37;2.93;;;;;;;;;;5039928;28;20207;-62
2023/12/15 09:33:58;;;;;;;4.47;3.30;;;;;;;;;;5036245;28;20249;-63
2023/12/15 09:36:27;;;;;;;11.07;3.70;;;;;;;;;;5039724;28;20210;-63
2023/12/15 09:38:56;;;;;;;6.90;2.83;;;;;;;;;;5039148;28;20634;-63
2023/12/15 09:41:26;;;;;;;10.20;3.57;;;;;;;;;;5039360;28;20239;-62
2023/12/15 09:43:54;;;;;;;4.00;2.80;;;;;;;;;;5039192;28;20231;-62
2023/12/15 09:46:22;;;;;;;8.10;3.30;;;;;;;;;;5039575;28;20199;-62
2023/12/15 09:48:50;;;;;;;7.57;2.80;;;;;;;;;;5039093;28;20620;-62
2023/12/15 09:51:22;;;;;;;6.70;2.83;;;;;;;;;;5039293;28;20560;-62
2023/12/15 09:53:51;;;;;;;6.10;2.93;;;;;;;;;;5038645;28;20224;-62
2023/12/15 09:56:19;;;;;;;8.03;3.40;;;;;;;;;;5038945;28;20254;-62
2023/12/15 09:58:47;;;;;;;5.50;2.80;;;;;;;;;;5037908;28;20199;-63
2023/12/15 10:01:15;;;;;;;9.47;2.70;;;;;;;;;;5037998;28;20566;-63
2023/12/15 10:03:44;;;;;;;2.73;2.00;;;;;;;;;;5038252;28;20709;-62
2023/12/15 10:06:12;;;;;;;2.60;2.40;;;;;;;;;;5038647;28;20231;-63
2023/12/15 10:08:43;;;;;;;3.90;2.37;;;;;;;;;;5039082;28;20204;-63
2023/12/15 10:11:16;;;;;;;7.23;2.70;;;;;;;;;;5035383;28;20204;-63
2023/12/15 10:13:45;;;;;;;4.50;2.20;;;;;;;;;;5038313;28;20261;-63
2023/12/15 10:16:13;;;;;;;3.63;2.83;;;;;;;;;;5038907;28;20338;-62
2023/12/15 10:18:41;;;;;;;5.37;3.00;;;;;;;;;;5038654;28;20257;-63
2023/12/15 10:21:14;;;;;;;3.23;2.43;;;;;;;;;;5038906;28;20227;-62
2023/12/15 10:23:43;;;;;;;4.57;2.53;;;;;;;;;;5038880;28;20215;-62
2023/12/15 10:26:11;;;;;;;6.43;3.23;;;;;;;;;;5038993;28;20617;-62
2023/12/15 10:28:40;;;;;;;6.83;3.47;;;;;;;;;;5038380;28;20207;-62
2023/12/15 10:31:08;;;;;;;3.73;2.33;;;;;;;;;;5037894;28;20273;-62
2023/12/15 10:33:37;;;;;;;6.20;2.70;;;;;;;;;;5037503;28;20223;-63
2023/12/15 10:36:07;;;;;;;3.80;2.23;;;;;;;;;;5038634;28;20238;-63
2023/12/15 10:38:38;;;;;;;3.30;3.00;;;;;;;;;;5038409;28;20282;-62
2023/12/15 10:41:08;;;;;;;3.83;2.93;;;;;;;;;;5038599;28;20246;-61
2023/12/15 10:43:37;;;;;;;3.67;2.90;;;;;;;;;;5038156;28;20302;-62
2023/12/15 10:46:08;;;;;;;4.10;2.83;;;;;;;;;;5038519;28;20204;-62
2023/12/15 10:48:38;;;;;;;3.03;2.67;;;;;;;;;;5037588;28;20200;-62
2023/12/15 10:51:07;;;;;;;7.10;2.90;;;;;;;;;;5034399;28;20265;-62
2023/12/15 10:53:37;;;;;;;4.20;3.10;;;;;;;;;;5037603;28;20318;-62
2023/12/15 10:56:08;;;;;;;3.37;3.03;;;;;;;;;;5037877;28;20658;-62
2023/12/15 10:58:36;;;;;;;4.97;3.30;;;;;;;;;;5033976;28;20283;-62
2023/12/15 11:01:09;;;;;;;4.90;3.20;;;;;;;;;;5038048;28;20207;-62
2023/12/15 11:03:37;;;;;;;3.83;2.90;;;;;;;;;;5037628;28;20269;-62
2023/12/15 11:06:06;;;;;;;2.83;2.60;;;;;;;;;;5037385;28;20293;-62
2023/12/15 11:08:34;;;;;;;2.50;2.30;;;;;;;;;;5037938;28;20292;-63
2023/12/15 11:11:04;;;;;;;4.27;2.73;;;;;;;;;;5037899;28;20203;-62
2023/12/15 11:13:53;;;;;;;3.87;2.63;;;;;;;;;;5037878;28;20255;-62
2023/12/15 11:16:23;;;;;;;3.03;2.47;;;;;;;;;;5034714;28;20208;-62
2023/12/15 11:18:52;;;;;;;4.20;2.30;;;;;;;;;;5035982;28;20234;-62
2023/12/15 11:21:21;;;;;;;3.47;2.47;;;;;;;;;;5036185;28;20221;-61
2023/12/15 11:23:50;;;;;;;6.07;2.80;;;;;;;;;;5037645;28;20219;-62
2023/12/15 11:26:25;;;;;;;5.53;2.60;;;;;;;;;;5033626;28;20807;-62
2023/12/15 11:29:02;;;;;;;4.97;2.90;;;;;;;;;;5035834;28;20235;-62
2023/12/15 11:31:33;;;;;;;4.40;2.33;;;;;;;;;;5036510;28;20209;-62
2023/12/15 11:34:03;;;;;;;2.47;2.10;;;;;;;;;;5037268;28;20224;-62
2023/12/15 11:36:32;;;;;;;5.47;2.40;;;;;;;;;;5036871;28;20231;-62
2023/12/15 11:39:01;;;;;;;2.40;2.13;;;;;;;;;;5037932;28;20204;-62
2023/12/15 11:41:29;;;;;;;4.47;2.40;;;;;;;;;;5037810;28;20199;-62
2023/12/15 11:44:01;;;;;;;4.87;2.20;;;;;;;;;;5037330;28;20254;-64
2023/12/15 11:46:33;;;;;;;3.80;2.40;;;;;;;;;;5037486;28;20206;-63
2023/12/15 11:49:02;;;;;;;3.47;2.40;;;;;;;;;;5037152;28;20204;-63
2023/12/15 11:51:32;;;;;;;2.73;2.40;;;;;;;;;;5037227;28;20253;-63
2023/12/15 11:54:07;;;;;;;3.27;2.93;;;;;;;;;;5037280;28;20238;-63
2023/12/15 11:56:36;;;;;;;4.77;2.17;;;;;;;;;;5037035;28;20662;-62
2023/12/15 11:59:07;;;;;;;6.63;3.10;;;;;;;;;;5037309;28;20208;-62
2023/12/15 12:01:37;;;;;;;4.77;2.23;;;;;;;;;;5037100;28;20257;-63
2023/12/15 12:04:06;;;;;;;4.27;2.20;;;;;;;;;;5037213;28;20681;-62
2023/12/15 12:06:34;;;;;;;2.97;1.87;;;;;;;;;;5036631;28;20255;-63
2023/12/15 12:09:03;;;;;;;5.53;2.20;;;;;;;;;;5037767;28;20210;-64
2023/12/15 12:11:32;;;;;;;3.03;2.10;;;;;;;;;;5037218;28;20657;-63
2023/12/15 12:14:03;;;;;;;3.43;2.33;;;;;;;;;;5031538;28;20339;-62
2023/12/15 12:16:34;;;;;;;2.63;1.93;;;;;;;;;;5036535;28;20200;-62
2023/12/15 12:19:02;;;;;;;2.00;1.80;;;;;;;;;;5037043;28;20207;-63
2023/12/15 12:21:32;;;;;;;7.67;2.23;;;;;;;;;;5037091;28;20207;-62
2023/12/15 12:24:01;;;;;;;3.23;2.10;;;;;;;;;;5036834;28;20261;-62
2023/12/15 12:26:29;;;;;;;3.33;2.20;;;;;;;;;;5036789;28;20200;-63
2023/12/15 12:28:57;;;;;;;7.87;2.17;;;;;;;;;;5037012;28;20208;-63
2023/12/15 12:31:29;;;;;;;3.73;1.97;;;;;;;;;;5036690;28;20277;-64
2023/12/15 12:33:59;;;;;;;4.47;2.03;;;;;;;;;;5037069;28;20220;-64
2023/12/15 12:36:28;;;;;;;2.97;1.53;;;;;;;;;;5036445;28;20224;-64
2023/12/15 12:38:56;;;;;;;3.33;1.83;;;;;;;;;;5039218;28;20212;-62
2023/12/15 12:41:24;;;;;;;2.53;1.57;;;;;;;;;;5040852;28;20207;-62
2023/12/15 12:43:53;;;;;;;2.57;2.00;;;;;;;;;;5040509;28;20228;-64
2023/12/15 12:46:22;;;;;;;2.47;1.67;;;;;;;;;;5040961;28;20201;-63
2023/12/15 12:48:50;;;;;;;2.87;1.50;;;;;;;;;;5040694;28;20214;-62
2023/12/15 12:51:19;;;;;;;4.07;1.87;;;;;;;;;;5040522;28;20211;-62
2023/12/15 12:53:47;;;;;;;1.30;1.20;;;;;;;;;;5038875;28;20234;-62
2023/12/15 12:56:21;;;;;;;2.13;1.50;;;;;;;;;;5040430;28;20222;-62
2023/12/15 12:58:51;;;;;;;4.17;1.70;;;;;;;;;;5032398;28;20577;-62
2023/12/15 13:01:19;;;;;;;1.50;1.40;;;;;;;;;;5040669;28;20204;-63
2023/12/15 13:03:48;;;;;;;1.63;1.27;;;;;;;;;;5039811;28;20231;-62
2023/12/15 13:06:16;;;;;;;2.00;1.30;;;;;;;;;;5039986;28;20694;-62
2023/12/15 13:08:46;;;;;;;1.30;1.20;;;;;;;;;;5038323;28;20215;-62
2023/12/15 13:11:14;;;;;;;2.27;1.73;;;;;;;;;;5039982;28;20670;-62
2023/12/15 13:13:43;;;;;;;5.40;1.70;;;;;;;;;;5040050;28;20231;-62
2023/12/15 13:16:13;;;;;;;4.53;1.53;;;;;;;;;;5034666;28;20231;-62
2023/12/15 13:18:47;;;;;;;2.97;1.70;;;;;;;;;;5040095;28;20204;-62
2023/12/15 13:21:15;;;;;;;1.20;1.10;;;;;;;;;;5039713;28;21805;-62
2023/12/15 13:23:43;;;;;;;1.87;1.30;;;;;;;;;;5039477;28;20273;-63
2023/12/15 13:26:14;;;;;;;6.07;1.30;;;;;;;;;;5039816;28;20259;-63
2023/12/15 13:28:43;;;;;;;1.77;1.27;;;;;;;;;;5040113;28;20249;-62
2023/12/15 13:31:11;;;;;;;1.93;1.27;;;;;;;;;;5039429;28;20269;-63
2023/12/15 13:33:45;;;;;;;1.43;1.10;;;;;;;;;;5039415;28;20302;-62
2023/12/15 13:36:14;;;;;;;1.43;1.30;;;;;;;;;;5038235;28;20223;-63
2023/12/15 13:38:45;;;;;;;2.23;1.40;;;;;;;;;;5040043;28;20609;-63
2023/12/15 13:41:15;;;;;;;1.63;1.30;;;;;;;;;;5039341;28;20199;-63
2023/12/15 13:43:43;;;;;;;2.37;1.97;;;;;;;;;;5039528;28;20233;-63
2023/12/15 13:46:12;;;;;;;4.27;1.70;;;;;;;;;;5039474;28;20199;-63
2023/12/15 13:48:40;;;;;;;3.23;1.47;;;;;;;;;;5034632;28;20211;-62
2023/12/15 13:51:08;;;;;;;2.27;1.43;;;;;;;;;;5039206;28;20210;-63
2023/12/15 13:53:37;;;;;;;2.13;1.20;;;;;;;;;;5035044;28;20310;-63
2023/12/15 13:56:05;;;;;;;2.17;1.50;;;;;;;;;;5039452;28;20227;-62
2023/12/15 13:58:35;;;;;;;2.40;1.60;;;;;;;;;;5039365;28;20203;-62
2023/12/15 14:01:03;;;;;;;1.57;1.47;;;;;;;;;;5039591;28;20203;-62
2023/12/15 14:03:31;;;;;;;2.37;1.53;;;;;;;;;;5033068;28;20220;-61
2023/12/15 14:06:00;;;;;;;2.47;1.90;;;;;;;;;;5039034;28;20630;-61
2023/12/15 14:08:28;;;;;;;3.87;2.40;;;;;;;;;;5038608;28;20227;-62
2023/12/15 14:10:57;;;;;;;2.73;1.93;;;;;;;;;;5038903;28;20214;-62
2023/12/15 14:13:30;;;;;;;3.97;2.40;;;;;;;;;;5038655;28;20224;-62
2023/12/15 14:16:00;;;;;;;2.37;1.97;;;;;;;;;;5039138;28;20229;-61
2023/12/15 14:18:36;;;;;;;3.00;1.90;;;;;;;;;;5026970;28;20199;-61
2023/12/15 14:21:05;;;;;;;5.13;3.00;;;;;;;;;;5038439;28;20793;-61
2023/12/15 14:23:33;;;;;;;3.47;2.33;;;;;;;;;;5039036;28;20228;-61
2023/12/15 14:26:01;;;;;;;2.73;1.97;;;;;;;;;;5038668;28;20227;-61
2023/12/15 14:28:31;;;;;;;2.23;1.87;;;;;;;;;;5038999;28;20204;-61
2023/12/15 14:31:02;;;;;;;2.27;1.80;;;;;;;;;;5038255;28;20608;-61
2023/12/15 14:33:30;;;;;;;2.47;1.70;;;;;;;;;;5038530;28;20219;-61
2023/12/15 14:36:02;;;;;;;5.40;1.90;;;;;;;;;;5038610;28;20220;-61
2023/12/15 14:38:30;;;;;;;6.83;1.80;;;;;;;;;;5038791;28;20227;-60
2023/12/15 14:40:58;;;;;;;2.77;1.70;;;;;;;;;;5038569;28;20207;-61
2023/12/15 14:43:30;;;;;;;8.73;2.10;;;;;;;;;;5031600;28;20224;-61
2023/12/15 14:45:58;;;;;;;1.73;1.60;;;;;;;;;;5038433;28;20205;-61
2023/12/15 14:48:28;;;;;;;2.17;1.80;;;;;;;;;;5038432;28;20207;-61
2023/12/15 14:50:57;;;;;;;5.40;2.23;;;;;;;;;;5032957;28;20203;-61
2023/12/15 14:53:25;;;;;;;2.37;1.73;;;;;;;;;;5038432;28;20306;-61
2023/12/15 14:55:53;;;;;;;3.20;1.70;;;;;;;;;;5038356;28;20219;-61
2023/12/15 14:58:21;;;;;;;2.23;1.90;;;;;;;;;;5038119;28;20613;-61
2023/12/15 15:00:50;;;;;;;3.67;1.70;;;;;;;;;;5037228;28;20212;-61
2023/12/15 15:03:19;;;;;;;1.87;1.77;;;;;;;;;;5037837;28;20314;-61
2023/12/15 15:05:48;;;;;;;2.17;1.83;;;;;;;;;;5037421;28;20239;-61
2023/12/15 15:08:16;;;;;;;3.33;2.03;;;;;;;;;;5034165;28;20200;-61
2023/12/15 15:10:46;;;;;;;1.70;1.60;;;;;;;;;;5038232;28;20238;-61